Zeynalabdin Tagiyev — 9HLD8 — position and weather

sailwx.info

Track history (hours):
 
Tides and Currents Weather Stations Pressure Air Temp Water Temp Dewpoint Dewpoint Depression Visibility Wind Speed Wind Dir Waves Ship Positions

Zeynalabdin Tagiyev

Last reported at 2015-May-23 12:23 UTC. Time now 2015-May-23 13:23 UTC.
Position N 46°08' W 001°39'.

Length 140 m; draft 4.7 m.

Type: Cargo ship. MMSI: 256107000.

Date/timePositionNaut miles runAvg speedWind from/ knotsBaromVisibWave heightAir tempDewpointWater temp
2015-May-23 12:23N 46°08' W 001°39'910.3
2015-May-23 11:34N 46°07' W 001°27'9 8.7
2015-May-23 10:34N 46°08' W 001°15'1 1.2
2015-May-23 09:32N 46°09' W 001°14'0 0.0
2015-May-23 08:32N 46°09' W 001°14'0 0.0
2015-May-23 07:30N 46°09' W 001°14'0 0.0
2015-May-23 06:33N 46°09' W 001°14'0 0.0
2015-May-23 05:33N 46°09' W 001°14'0 0.0
2015-May-23 04:31N 46°09' W 001°14'0 0.0
2015-May-23 03:32N 46°09' W 001°14'0 0.0
2015-May-23 02:32N 46°09' W 001°14'0 0.0
2015-May-23 01:32N 46°09' W 001°14'0 0.0
2015-May-23 00:32N 46°09' W 001°14'0 0.0
2015-May-22 23:32N 46°09' W 001°14'0 0.0
2015-May-22 22:31N 46°09' W 001°14'0 0.0
2015-May-22 21:31N 46°09' W 001°14'0 0.0
2015-May-22 20:31N 46°09' W 001°14'0 0.0
2015-May-22 19:31N 46°09' W 001°14'0 0.0
2015-May-22 18:31N 46°09' W 001°14'0 0.0
2015-May-22 17:31N 46°09' W 001°14'0 0.0
2015-May-22 16:31N 46°09' W 001°14'0 0.0
2015-May-22 15:33N 46°09' W 001°14'0 0.0
2015-May-22 14:33N 46°09' W 001°14'0 0.0
2015-May-22 13:33N 46°09' W 001°14'0 0.0
2015-May-22 12:33N 46°09' W 001°14'0 0.0
2015-May-22 11:33N 46°09' W 001°14'0 0.0
2015-May-22 10:33N 46°09' W 001°14'0 0.0
2015-May-22 09:33N 46°09' W 001°14'0 0.0
2015-May-22 08:31N 46°09' W 001°14'0 0.0
2015-May-22 07:31N 46°09' W 001°14'0 0.0
2015-May-22 06:31N 46°09' W 001°14'0 0.0
2015-May-22 05:33N 46°09' W 001°14'0 0.0
2015-May-22 04:33N 46°09' W 001°14'0 0.0
2015-May-22 03:33N 46°09' W 001°14'0 0.0
2015-May-22 02:33N 46°09' W 001°14'0 0.0
2015-May-22 01:33N 46°09' W 001°14'0 0.0
2015-May-22 00:32N 46°09' W 001°14'0 0.0
2015-May-21 23:32N 46°09' W 001°14'0 0.0
2015-May-21 22:32N 46°09' W 001°14'0 0.0
2015-May-21 21:32N 46°09' W 001°14'0 0.0
2015-May-21 20:32N 46°09' W 001°14'0 0.0
2015-May-21 19:32N 46°09' W 001°14'0 0.0
2015-May-21 18:30N 46°09' W 001°14'0 0.0
2015-May-21 17:33N 46°09' W 001°14'0 0.0
2015-May-21 16:33N 46°09' W 001°14'0 0.0
2015-May-21 15:32N 46°09' W 001°14'0 0.0
2015-May-21 14:32N 46°09' W 001°14'0 0.0
2015-May-21 13:34N 46°09' W 001°14'6 5.8
2015-May-21 12:33N 46°06' W 001°20'11 9.0
2015-May-21 11:20N 46°07' W 001°36'23 8.2
2015-May-21 08:33N 46°17' W 002°06'10 9.6
2015-May-21 07:33N 46°25' W 002°14'93 7.2
2015-May-20 18:31N 47°35' W 003°44'9 9.3
2015-May-20 17:33N 47°40' W 003°33'7 7.4
2015-May-20 16:33N 47°42' W 003°22'2 1.8
2015-May-20 15:32N 47°44' W 003°21'0 0.0
2015-May-20 14:32N 47°44' W 003°21'0 0.0
2015-May-20 13:32N 47°44' W 003°21'0 0.0
2015-May-20 12:32N 47°44' W 003°21'0 0.0
2015-May-20 11:32N 47°44' W 003°21'0 0.0
2015-May-20 10:32N 47°44' W 003°21'0 0.0
2015-May-20 09:33N 47°44' W 003°21'0 0.0
2015-May-20 08:33N 47°44' W 003°21'0 0.0
2015-May-20 07:31N 47°44' W 003°21'0 0.0
2015-May-20 06:31N 47°44' W 003°21'0 0.0
2015-May-20 05:31N 47°44' W 003°21'0 0.0
2015-May-20 04:31N 47°44' W 003°21'0 0.0
2015-May-20 03:31N 47°44' W 003°21'0 0.0
2015-May-20 02:33N 47°44' W 003°21'0 0.0
2015-May-20 01:33N 47°44' W 003°21'0 0.0
2015-May-20 00:32N 47°44' W 003°21'0 0.0
2015-May-19 23:32N 47°44' W 003°21'0 0.0
2015-May-19 22:32N 47°44' W 003°21'0 0.0
2015-May-19 21:32N 47°44' W 003°21'0 0.0
2015-May-19 20:31N 47°44' W 003°21'0 0.0
2015-May-19 19:31N 47°44' W 003°21'0 0.0
2015-May-19 18:32N 47°44' W 003°21'0 0.0
2015-May-19 17:33N 47°44' W 003°21'0 0.0
2015-May-19 16:32N 47°44' W 003°21'0 0.0
2015-May-19 15:31N 47°44' W 003°21'0 0.0
2015-May-19 14:31N 47°44' W 003°21'0 0.0
2015-May-19 13:32N 47°44' W 003°21'0 0.0
2015-May-19 12:32N 47°44' W 003°21'0 0.0
2015-May-19 11:31N 47°44' W 003°21'0 0.0
2015-May-19 10:32N 47°44' W 003°21'0 0.0
2015-May-19 09:32N 47°44' W 003°21'0 0.0
2015-May-19 08:31N 47°44' W 003°21'0 0.0
2015-May-19 07:33N 47°44' W 003°21'0 0.0
2015-May-19 06:33N 47°44' W 003°21'0 0.0
2015-May-19 05:32N 47°44' W 003°21'0 0.0
2015-May-19 04:32N 47°44' W 003°21'0 0.0
2015-May-19 03:31N 47°44' W 003°21'0 0.0
2015-May-19 02:33N 47°44' W 003°21'0 0.0
2015-May-19 01:33N 47°44' W 003°21'0 0.0
2015-May-19 00:29N 47°44' W 003°21'0 0.0
2015-May-18 23:32N 47°44' W 003°21'0 0.0
2015-May-18 22:32N 47°44' W 003°21'0 0.0
2015-May-18 21:32N 47°44' W 003°21'0 0.0
2015-May-18 20:33N 47°44' W 003°21'3 3.1
2015-May-18 19:33N 47°41' W 003°24'9 8.7
2015-May-18 18:33N 47°40' W 003°37'9 8.9
2015-May-18 17:33N 47°35' W 003°47'  
2015-May-15 09:07N 39°04' W 009°43'5 6.3
2015-May-15 08:18N 38°58' W 009°43'5 6.2
2015-May-15 07:25N 38°53' W 009°43'6 5.8
2015-May-15 06:19N 38°47' W 009°42'4 5.5
2015-May-15 05:33N 38°42' W 009°42'6 5.6
2015-May-15 04:31N 38°37' W 009°41'5 5.4
2015-May-15 03:32N 38°31' W 009°40'8 5.9
2015-May-15 02:12N 38°24' W 009°38'17 6.2
2015-May-14 23:29N 38°07' W 009°35'6 5.9
2015-May-14 22:29N 38°01' W 009°33'8 5.6
2015-May-14 21:07N 37°54' W 009°32'3 5.9
2015-May-14 20:33N 37°50' W 009°31'6 6.1
2015-May-14 19:33N 37°44' W 009°30'7 6.6
2015-May-14 18:33N 37°38' W 009°29'7 7.0
2015-May-14 17:33N 37°31' W 009°27'8 7.4
2015-May-14 16:32N 37°23' W 009°26'10 7.5
2015-May-14 15:15N 37°14' W 009°25'39 6.7
2015-May-14 09:27N 36°41' W 008°58'7 7.8
2015-May-14 08:29N 36°39' W 008°49'10 8.2
2015-May-14 07:16N 36°36' W 008°37'7 8.4
2015-May-14 06:29N 36°34' W 008°30'8 8.5
2015-May-14 05:33N 36°32' W 008°20'9 8.8
2015-May-14 04:32N 36°29' W 008°10'136 9.1
2015-May-13 13:33N 36°01' W 005°24'9 8.7
2015-May-13 12:33N 36°02' W 005°14'  
Track history (hours):
 
Tides and Currents Weather Stations Pressure Air Temp Water Temp Dewpoint Dewpoint Depression Visibility Wind Speed Wind Dir Waves Ship Positions

Zeynalabdin Tagiyev

Last reported at 2015-May-23 12:23 UTC. Time now 2015-May-23 13:23 UTC.
Position N 46°08' W 001°39'.

Length 140 m; draft 4.7 m.

Type: Cargo ship. MMSI: 256107000.

Date/timePositionNaut miles runAvg speedWind from/ knotsBaromVisibWave heightAir tempDewpointWater temp
2015-May-23 12:23N 46°08' W 001°39'910.3
2015-May-23 11:34N 46°07' W 001°27'9 8.7
2015-May-23 10:34N 46°08' W 001°15'1 1.2
2015-May-23 09:32N 46°09' W 001°14'0 0.0
2015-May-23 08:32N 46°09' W 001°14'0 0.0
2015-May-23 07:30N 46°09' W 001°14'0 0.0
2015-May-23 06:33N 46°09' W 001°14'0 0.0
2015-May-23 05:33N 46°09' W 001°14'0 0.0
2015-May-23 04:31N 46°09' W 001°14'0 0.0
2015-May-23 03:32N 46°09' W 001°14'0 0.0
2015-May-23 02:32N 46°09' W 001°14'0 0.0
2015-May-23 01:32N 46°09' W 001°14'0 0.0
2015-May-23 00:32N 46°09' W 001°14'0 0.0
2015-May-22 23:32N 46°09' W 001°14'0 0.0
2015-May-22 22:31N 46°09' W 001°14'0 0.0
2015-May-22 21:31N 46°09' W 001°14'0 0.0
2015-May-22 20:31N 46°09' W 001°14'0 0.0
2015-May-22 19:31N 46°09' W 001°14'0 0.0
2015-May-22 18:31N 46°09' W 001°14'0 0.0
2015-May-22 17:31N 46°09' W 001°14'0 0.0
2015-May-22 16:31N 46°09' W 001°14'0 0.0
2015-May-22 15:33N 46°09' W 001°14'0 0.0
2015-May-22 14:33N 46°09' W 001°14'0 0.0
2015-May-22 13:33N 46°09' W 001°14'0 0.0
2015-May-22 12:33N 46°09' W 001°14'0 0.0
2015-May-22 11:33N 46°09' W 001°14'0 0.0
2015-May-22 10:33N 46°09' W 001°14'0 0.0
2015-May-22 09:33N 46°09' W 001°14'0 0.0
2015-May-22 08:31N 46°09' W 001°14'0 0.0
2015-May-22 07:31N 46°09' W 001°14'0 0.0
2015-May-22 06:31N 46°09' W 001°14'0 0.0
2015-May-22 05:33N 46°09' W 001°14'0 0.0
2015-May-22 04:33N 46°09' W 001°14'0 0.0
2015-May-22 03:33N 46°09' W 001°14'0 0.0
2015-May-22 02:33N 46°09' W 001°14'0 0.0
2015-May-22 01:33N 46°09' W 001°14'0 0.0
2015-May-22 00:32N 46°09' W 001°14'0 0.0
2015-May-21 23:32N 46°09' W 001°14'0 0.0
2015-May-21 22:32N 46°09' W 001°14'0 0.0
2015-May-21 21:32N 46°09' W 001°14'0 0.0
2015-May-21 20:32N 46°09' W 001°14'0 0.0
2015-May-21 19:32N 46°09' W 001°14'0 0.0
2015-May-21 18:30N 46°09' W 001°14'0 0.0
2015-May-21 17:33N 46°09' W 001°14'0 0.0
2015-May-21 16:33N 46°09' W 001°14'0 0.0
2015-May-21 15:32N 46°09' W 001°14'0 0.0
2015-May-21 14:32N 46°09' W 001°14'0 0.0
2015-May-21 13:34N 46°09' W 001°14'6 5.8
2015-May-21 12:33N 46°06' W 001°20'11 9.0
2015-May-21 11:20N 46°07' W 001°36'23 8.2
2015-May-21 08:33N 46°17' W 002°06'10 9.6
2015-May-21 07:33N 46°25' W 002°14'93 7.2
2015-May-20 18:31N 47°35' W 003°44'9 9.3
2015-May-20 17:33N 47°40' W 003°33'7 7.4
2015-May-20 16:33N 47°42' W 003°22'2 1.8
2015-May-20 15:32N 47°44' W 003°21'0 0.0
2015-May-20 14:32N 47°44' W 003°21'0 0.0
2015-May-20 13:32N 47°44' W 003°21'0 0.0
2015-May-20 12:32N 47°44' W 003°21'0 0.0
2015-May-20 11:32N 47°44' W 003°21'0 0.0
2015-May-20 10:32N 47°44' W 003°21'0 0.0
2015-May-20 09:33N 47°44' W 003°21'0 0.0
2015-May-20 08:33N 47°44' W 003°21'0 0.0
2015-May-20 07:31N 47°44' W 003°21'0 0.0
2015-May-20 06:31N 47°44' W 003°21'0 0.0
2015-May-20 05:31N 47°44' W 003°21'0 0.0
2015-May-20 04:31N 47°44' W 003°21'0 0.0
2015-May-20 03:31N 47°44' W 003°21'0 0.0
2015-May-20 02:33N 47°44' W 003°21'0 0.0
2015-May-20 01:33N 47°44' W 003°21'0 0.0
2015-May-20 00:32N 47°44' W 003°21'0 0.0
2015-May-19 23:32N 47°44' W 003°21'0 0.0
2015-May-19 22:32N 47°44' W 003°21'0 0.0
2015-May-19 21:32N 47°44' W 003°21'0 0.0
2015-May-19 20:31N 47°44' W 003°21'0 0.0
2015-May-19 19:31N 47°44' W 003°21'0 0.0
2015-May-19 18:32N 47°44' W 003°21'0 0.0
2015-May-19 17:33N 47°44' W 003°21'0 0.0
2015-May-19 16:32N 47°44' W 003°21'0 0.0
2015-May-19 15:31N 47°44' W 003°21'0 0.0
2015-May-19 14:31N 47°44' W 003°21'0 0.0
2015-May-19 13:32N 47°44' W 003°21'0 0.0
2015-May-19 12:32N 47°44' W 003°21'0 0.0
2015-May-19 11:31N 47°44' W 003°21'0 0.0
2015-May-19 10:32N 47°44' W 003°21'0 0.0
2015-May-19 09:32N 47°44' W 003°21'0 0.0
2015-May-19 08:31N 47°44' W 003°21'0 0.0
2015-May-19 07:33N 47°44' W 003°21'0 0.0
2015-May-19 06:33N 47°44' W 003°21'0 0.0
2015-May-19 05:32N 47°44' W 003°21'0 0.0
2015-May-19 04:32N 47°44' W 003°21'0 0.0
2015-May-19 03:31N 47°44' W 003°21'0 0.0
2015-May-19 02:33N 47°44' W 003°21'0 0.0
2015-May-19 01:33N 47°44' W 003°21'0 0.0
2015-May-19 00:29N 47°44' W 003°21'0 0.0
2015-May-18 23:32N 47°44' W 003°21'0 0.0
2015-May-18 22:32N 47°44' W 003°21'0 0.0
2015-May-18 21:32N 47°44' W 003°21'0 0.0
2015-May-18 20:33N 47°44' W 003°21'3 3.1
2015-May-18 19:33N 47°41' W 003°24'9 8.7
2015-May-18 18:33N 47°40' W 003°37'9 8.9
2015-May-18 17:33N 47°35' W 003°47'  
2015-May-15 09:07N 39°04' W 009°43'5 6.3
2015-May-15 08:18N 38°58' W 009°43'5 6.2
2015-May-15 07:25N 38°53' W 009°43'6 5.8
2015-May-15 06:19N 38°47' W 009°42'4 5.5
2015-May-15 05:33N 38°42' W 009°42'6 5.6
2015-May-15 04:31N 38°37' W 009°41'5 5.4
2015-May-15 03:32N 38°31' W 009°40'8 5.9
2015-May-15 02:12N 38°24' W 009°38'17 6.2
2015-May-14 23:29N 38°07' W 009°35'6 5.9
2015-May-14 22:29N 38°01' W 009°33'8 5.6
2015-May-14 21:07N 37°54' W 009°32'3 5.9
2015-May-14 20:33N 37°50' W 009°31'6 6.1
2015-May-14 19:33N 37°44' W 009°30'7 6.6
2015-May-14 18:33N 37°38' W 009°29'7 7.0
2015-May-14 17:33N 37°31' W 009°27'8 7.4
2015-May-14 16:32N 37°23' W 009°26'10 7.5
2015-May-14 15:15N 37°14' W 009°25'39 6.7
2015-May-14 09:27N 36°41' W 008°58'7 7.8
2015-May-14 08:29N 36°39' W 008°49'10 8.2
2015-May-14 07:16N 36°36' W 008°37'7 8.4
2015-May-14 06:29N 36°34' W 008°30'8 8.5
2015-May-14 05:33N 36°32' W 008°20'9 8.8
2015-May-14 04:32N 36°29' W 008°10'136 9.1
2015-May-13 13:33N 36°01' W 005°24'9 8.7
2015-May-13 12:33N 36°02' W 005°14'  

Dump ship's entire track history